CheckWX is a tool to help pilots better visualize weather data.  It is not intended as a substitute for an official pre-flight weather briefing.

21:55:13 UTC

GOTT METAR
Tambacounda Airport
Tambacounda, Senegal
Current

55 mins ago

GOTT 232100Z 30004KT CAVOK 37/21 Q1006
Observed
May-23 @ 21:00 UTC
Wind
  • 300° at 4 KTS
Visibility
10,000+ meters
Flight Rules
VFR
Cloud Levels
  • Clear skies
Temperature
37°C / 99°F
Dewpoint
21°C / 70°F
Humidity
39%
Altimeter
29.7" Hg
Pressure
1005.92 hPa
Previous

2 hours ago

GOTT 232000Z 30004KT CAVOK 39/21 Q1005
Observed
May-23 @ 20:00 UTC
Wind
  • 300° at 4 KTS
Visibility
10,000+ meters
Flight Rules
VFR
Cloud Levels
  • Clear skies
Temperature
39°C / 102°F
Dewpoint
21°C / 70°F
Humidity
35%
Altimeter
29.68" Hg
Pressure
1004.92 hPa
Previous

3 hours ago

GOTT 231900Z 32006KT CAVOK 42/22 Q1005
Observed
May-23 @ 19:00 UTC
Wind
  • 320° at 6 KTS
Visibility
10,000+ meters
Flight Rules
VFR
Cloud Levels
  • Clear skies
Temperature
42°C / 108°F
Dewpoint
22°C / 72°F
Humidity
32%
Altimeter
29.68" Hg
Pressure
1004.92 hPa